Etusivu
METAR-TAF:

METAR-TAF

Lentoasemat :

Sétif, Algeria

Leveyspiiri: 36-11N, Pituuspiiri: 005-25E, korkeus merenpinnasta: 1038 m

Tämänhetkinen sää

Tämä raportti tehtiin 35 minuuttia sitten, kello 10.00 UTC
Tuuli 3 kn lounaasta
Lämpötila 11°C
Kosteus 54%
Ilmanpaine 1022 hPa
Näkyvyys: 8000 m

METAR: DAAS 231000Z 22003KT 8000 NSC 11/02 Q1022

Aika: 11:35 (10:35 UTC)

Sääennuste

Tämä raportti tehtiin 5 tuntia ja 35 minuuttia sitten, kello 05.00 UTC
Ennuste voimassa 23. päivästä klo 06 UTC - 24. päivään klo 06 UTC
Tuuli 10 kn lännestä/lounaasta
Näkyvyys: 8000 m
Muutamia pilviä 2600 ft:n korkeudessa
Hajanaisia pilviä 10000 ft:n korkeudessa

TAF: DAAS 230500Z 2306/2406 24010KT 8000 FEW026 SCT100

Säähavainnot ja -ennusteet yli 4000 lentoasemalta (METAR- ja TAF-raportit).

Käytössä olevat sääasemat on merkitty karttaan keltaisilla ja punaisilla pisteillä.

Aseta hiiri pisteen päälle nähdäksesi sääaseman nimen.

Klikkaa sitten nähdäksesi säähavainnot ja -ennusteet.

Kartan vaihtaminen: klikkaa mustalla rastilla varustettuja vihreitä pisteitä, niin voit zoomata sisään; viivalla varustettua vihreää pistettä, niin voit zoomata ulos tai vihreitä nuolia, niin pääset viereisille kartoille.


METAR-TAF: